createdAt,value
2019-03-21T00:02:14.297Z,107.25
2019-03-21T00:04:47.855Z,110.97
2019-03-21T00:07:20.444Z,102.00
2019-03-21T00:09:55.482Z,102.65
2019-03-21T00:12:27.883Z,94.70
2019-03-21T00:15:02.380Z,94.47
2019-03-21T00:17:37.142Z,96.10
2019-03-21T00:20:12.226Z,85.42
2019-03-21T00:22:44.606Z,91.43
2019-03-21T00:25:19.517Z,90.12
2019-03-21T00:27:51.892Z,91.00
2019-03-21T00:30:25.698Z,92.25
2019-03-21T00:32:59.027Z,95.00
2019-03-21T00:35:31.505Z,95.57
2019-03-21T00:38:03.643Z,91.40
2019-03-21T00:40:38.661Z,94.90
2019-03-21T00:43:12.949Z,87.30
2019-03-21T00:45:46.289Z,95.67
2019-03-21T00:48:21.080Z,90.42
2019-03-21T00:50:53.287Z,95.53
2019-03-21T00:53:25.567Z,92.25
2019-03-21T00:56:00.422Z,86.95
2019-03-21T00:58:32.883Z,83.55
2019-03-21T01:01:07.178Z,93.42
2019-03-21T01:03:40.360Z,91.22
2019-03-21T01:06:14.142Z,84.85
2019-03-21T01:08:46.401Z,93.55
2019-03-21T01:11:18.605Z,83.52
2019-03-21T01:13:50.955Z,79.07
2019-03-21T01:16:23.209Z,78.60
2019-03-21T01:18:55.315Z,84.52
2019-03-21T01:21:27.655Z,81.70
2019-03-21T01:23:59.760Z,82.78
2019-03-21T01:26:32.031Z,78.50
2019-03-21T01:29:04.352Z,79.92
2019-03-21T01:31:37.677Z,79.80
2019-03-21T01:34:10.235Z,84.60
2019-03-21T01:36:42.580Z,80.28
2019-03-21T01:39:14.717Z,88.35
2019-03-21T01:41:46.822Z,79.07
2019-03-21T01:44:19.062Z,82.50
2019-03-21T01:46:52.400Z,76.53
2019-03-21T01:49:24.895Z,82.97
2019-03-21T01:51:57.339Z,78.42
2019-03-21T01:54:29.640Z,85.57
2019-03-21T01:57:02.111Z,82.77
2019-03-21T01:59:34.532Z,79.50
2019-03-21T02:02:06.889Z,81.32
2019-03-21T02:04:39.041Z,75.08
2019-03-21T02:07:11.372Z,80.57
2019-03-21T02:09:43.574Z,83.52
2019-03-21T02:12:15.674Z,76.53
2019-03-21T02:14:52.102Z,78.92
2019-03-21T02:17:22.412Z,77.55
2019-03-21T02:19:54.608Z,73.67
2019-03-21T02:22:26.774Z,75.97
2019-03-21T02:24:59.040Z,76.62
2019-03-21T02:27:31.394Z,72.25
2019-03-21T02:30:03.687Z,74.42
2019-03-21T02:32:36.023Z,73.30
2019-03-21T02:35:09.729Z,73.62
2019-03-21T02:37:42.033Z,73.33
2019-03-21T02:40:16.741Z,76.25
2019-03-21T02:42:49.271Z,67.03
2019-03-21T02:45:21.388Z,69.85
2019-03-21T02:47:53.724Z,70.22
2019-03-21T02:50:28.884Z,70.60
2019-03-21T02:53:01.425Z,68.93
2019-03-21T02:55:34.132Z,67.10
2019-03-21T02:58:07.624Z,91.08
2019-03-21T03:00:41.217Z,76.23
2019-03-21T03:03:13.266Z,66.20
2019-03-21T03:05:45.607Z,65.12
2019-03-21T03:08:17.662Z,70.87
2019-03-21T03:10:52.287Z,68.02
2019-03-21T03:13:25.180Z,62.95
2019-03-21T03:15:58.594Z,65.00
2019-03-21T03:18:30.867Z,71.42
2019-03-21T03:21:02.993Z,62.08
2019-03-21T03:23:35.342Z,63.35
2019-03-21T03:26:07.603Z,71.07
2019-03-21T03:28:42.379Z,60.98
2019-03-21T03:31:14.645Z,67.30
2019-03-21T03:33:47.410Z,64.15
2019-03-21T03:36:20.821Z,57.77
2019-03-21T03:38:53.036Z,66.07
2019-03-21T03:41:25.234Z,66.07
2019-03-21T03:43:57.799Z,62.88
2019-03-21T03:46:29.987Z,66.90
2019-03-21T03:49:02.448Z,76.10
2019-03-21T03:51:34.727Z,64.82
2019-03-21T03:56:54.108Z,60.43
2019-03-21T03:59:26.575Z,62.48
2019-03-21T04:01:58.963Z,55.23
2019-03-21T04:04:31.213Z,56.67
2019-03-21T04:07:03.411Z,63.78
2019-03-21T04:09:35.654Z,53.83
2019-03-21T04:12:07.920Z,61.70
2019-03-21T04:14:40.577Z,62.70
2019-03-21T04:17:12.901Z,59.85
2019-03-21T04:19:45.062Z,67.20
2019-03-21T04:22:17.113Z,61.23
2019-03-21T04:24:49.252Z,58.17
2019-03-21T04:27:21.467Z,56.27
2019-03-21T04:29:53.706Z,55.40
2019-03-21T04:32:26.060Z,56.25
2019-03-21T04:34:58.371Z,61.03
2019-03-21T04:37:31.662Z,54.60
2019-03-21T04:40:04.157Z,53.75
2019-03-21T04:42:36.409Z,52.65
2019-03-21T04:45:11.510Z,49.93
2019-03-21T04:47:43.890Z,47.60
2019-03-21T04:50:18.753Z,46.45
2019-03-21T04:52:51.002Z,49.83
2019-03-21T04:55:23.306Z,54.43
2019-03-21T04:57:55.509Z,48.87
2019-03-21T05:00:30.681Z,51.80
2019-03-21T05:03:05.486Z,56.63
2019-03-21T05:05:37.994Z,49.60
2019-03-21T05:08:10.239Z,52.30
2019-03-21T05:10:42.558Z,47.27
2019-03-21T05:13:14.687Z,51.88
2019-03-21T05:15:49.909Z,48.42
2019-03-21T05:18:25.555Z,54.08
2019-03-21T05:20:57.850Z,47.10
2019-03-21T05:23:30.020Z,46.80
2019-03-21T05:26:03.964Z,47.65
2019-03-21T05:28:35.811Z,47.33
2019-03-21T05:31:10.910Z,50.77
2019-03-21T05:33:43.178Z,48.13
2019-03-21T05:36:15.523Z,49.50
2019-03-21T05:38:47.811Z,46.98
2019-03-21T05:41:20.267Z,48.20
2019-03-21T05:43:54.922Z,49.38
2019-03-21T05:46:27.487Z,46.75
2019-03-21T05:49:00.092Z,48.35
2019-03-21T05:51:32.318Z,45.20
2019-03-21T05:54:04.527Z,50.33
2019-03-21T05:56:36.631Z,49.08
2019-03-21T05:59:08.840Z,47.60
2019-03-21T06:01:41.210Z,49.93
2019-03-21T06:04:13.998Z,48.23
2019-03-21T06:06:49.019Z,49.90
2019-03-21T06:09:23.369Z,48.15
2019-03-21T06:11:58.071Z,44.80
2019-03-21T06:14:32.277Z,45.10
2019-03-21T06:17:05.676Z,48.83
2019-03-21T06:19:40.602Z,47.15
2019-03-21T06:22:15.646Z,46.83
2019-03-21T06:24:50.673Z,49.18
2019-03-21T06:27:28.625Z,49.27
2019-03-21T06:30:01.881Z,46.90
2019-03-21T06:32:34.187Z,46.30
2019-03-21T06:35:06.415Z,48.75
2019-03-21T06:37:38.742Z,48.08
2019-03-21T06:40:10.788Z,44.65
2019-03-21T06:42:43.057Z,49.40
2019-03-21T06:45:15.354Z,45.48
2019-03-21T06:47:47.772Z,47.50
2019-03-21T06:50:21.202Z,49.88
2019-03-21T06:52:53.635Z,43.75
2019-03-21T06:55:26.025Z,45.28
2019-03-21T06:57:59.222Z,43.45
2019-03-21T07:00:31.618Z,47.08
2019-03-21T07:03:05.159Z,48.15
2019-03-21T07:05:37.511Z,41.83
2019-03-21T07:08:09.818Z,45.97
2019-03-21T07:10:42.263Z,49.03
2019-03-21T07:13:14.395Z,46.20
2019-03-21T07:15:46.604Z,45.12
2019-03-21T07:18:20.149Z,45.23
2019-03-21T07:20:52.284Z,48.80
2019-03-21T07:23:24.687Z,44.03
2019-03-21T07:25:56.788Z,40.38
2019-03-21T07:28:28.903Z,43.40
2019-03-21T07:31:02.125Z,40.33
2019-03-21T07:33:34.547Z,43.57
2019-03-21T07:36:06.988Z,46.93
2019-03-21T07:38:39.225Z,43.30
2019-03-21T07:41:11.387Z,43.30
2019-03-21T07:43:43.602Z,44.00
2019-03-21T07:46:16.088Z,47.23
2019-03-21T07:48:48.380Z,40.27
2019-03-21T07:51:20.611Z,42.27
2019-03-21T07:53:52.992Z,39.95
2019-03-21T07:56:25.223Z,46.18
2019-03-21T07:58:57.892Z,45.63
2019-03-21T08:01:30.475Z,46.73
2019-03-21T08:04:03.330Z,43.30
2019-03-21T08:16:46.779Z,40.40
2019-03-21T08:19:18.981Z,46.68
2019-03-21T08:21:51.292Z,40.35
2019-03-21T08:24:23.721Z,38.25
2019-03-21T08:26:56.253Z,38.95
2019-03-21T08:29:28.617Z,41.10
2019-03-21T08:32:00.919Z,37.60
2019-03-21T08:34:33.105Z,38.65
2019-03-21T08:37:05.542Z,50.45
2019-03-21T08:39:37.960Z,44.03
2019-03-21T08:42:10.248Z,42.13
2019-03-21T08:44:42.475Z,39.85
2019-03-21T08:47:14.905Z,39.78
2019-03-21T08:49:47.280Z,38.27
2019-03-21T08:52:19.491Z,39.33
2019-03-21T08:54:51.887Z,44.33
2019-03-21T08:57:24.065Z,41.63
2019-03-21T08:59:56.555Z,52.48
2019-03-21T09:02:28.787Z,46.28
2019-03-21T09:05:01.266Z,45.40
2019-03-21T09:07:33.673Z,47.05
2019-03-21T09:10:08.115Z,42.25
2019-03-21T09:12:42.544Z,43.02
2019-03-21T09:15:14.152Z,45.45
2019-03-21T09:17:46.482Z,42.33
2019-03-21T09:20:19.079Z,42.95
2019-03-21T09:22:57.279Z,42.50
2019-03-21T09:26:24.578Z,44.65
2019-03-21T09:29:57.568Z,39.78
2019-03-21T09:32:38.753Z,45.55
2019-03-21T09:35:12.446Z,54.83
2019-03-21T09:37:44.706Z,45.08
2019-03-21T09:40:17.017Z,39.03
2019-03-21T09:42:49.086Z,41.42
2019-03-21T09:45:21.232Z,37.70
2019-03-21T09:47:53.426Z,37.05
2019-03-21T09:50:28.011Z,48.67
2019-03-21T09:53:00.508Z,51.27
2019-03-21T09:55:32.789Z,41.98
2019-03-21T09:58:05.849Z,44.65
2019-03-21T10:00:38.704Z,43.58
2019-03-21T10:03:11.028Z,46.83
2019-03-21T10:05:43.648Z,39.38
2019-03-21T10:08:16.040Z,64.42
2019-03-21T10:10:48.305Z,41.45
2019-03-21T10:13:20.483Z,47.47
2019-03-21T10:15:52.922Z,41.85
2019-03-21T10:18:25.302Z,39.88
2019-03-21T10:20:57.681Z,43.58
2019-03-21T10:23:29.846Z,44.08
2019-03-21T10:26:02.339Z,41.60
2019-03-21T10:28:34.512Z,47.78
2019-03-21T10:31:06.853Z,58.85
2019-03-21T10:33:39.144Z,45.20
2019-03-21T10:36:11.358Z,44.03
2019-03-21T10:38:43.622Z,53.40
2019-03-21T10:41:15.920Z,50.65
2019-03-21T10:43:48.364Z,46.05
2019-03-21T10:46:20.508Z,41.00
2019-03-21T10:48:52.736Z,37.67
2019-03-21T10:51:25.109Z,54.63
2019-03-21T10:53:58.376Z,52.40
2019-03-21T10:56:30.904Z,49.77
2019-03-21T10:59:03.111Z,46.85
2019-03-21T11:01:35.615Z,43.52
2019-03-21T11:04:08.031Z,55.73
2019-03-21T11:06:40.991Z,69.20
2019-03-21T11:09:13.220Z,43.00
2019-03-21T11:11:45.429Z,51.88
2019-03-21T11:14:17.981Z,59.90
2019-03-21T11:16:50.291Z,58.00
2019-03-21T11:19:22.513Z,69.83
2019-03-21T11:22:05.743Z,70.87
2019-03-21T11:24:28.318Z,58.58
2019-03-21T11:27:00.829Z,56.73
2019-03-21T11:29:32.991Z,58.43
2019-03-21T11:32:05.194Z,80.92
2019-03-21T11:34:37.510Z,73.83
2019-03-21T11:37:09.684Z,59.53
2019-03-21T11:39:42.102Z,56.48
2019-03-21T11:42:15.581Z,53.80
2019-03-21T11:44:47.866Z,55.10
2019-03-21T11:47:20.272Z,53.42
2019-03-21T11:49:52.877Z,53.25
2019-03-21T11:52:25.080Z,62.62
2019-03-21T11:54:57.165Z,51.80
2019-03-21T11:57:29.789Z,57.15
2019-03-21T12:00:02.048Z,52.98
2019-03-21T12:02:34.493Z,54.03
2019-03-21T12:05:08.408Z,51.60
2019-03-21T12:07:42.536Z,52.90
2019-03-21T12:10:15.095Z,49.05
2019-03-21T12:12:48.372Z,52.30
2019-03-21T12:15:20.751Z,44.73
2019-03-21T12:17:52.925Z,57.38
2019-03-21T12:20:27.483Z,51.02
2019-03-21T12:22:59.917Z,51.48
2019-03-21T12:25:34.265Z,49.83
2019-03-21T12:28:06.669Z,43.35
2019-03-21T12:30:40.088Z,51.37
2019-03-21T12:33:12.227Z,48.25
2019-03-21T12:35:48.787Z,45.98
2019-03-21T12:38:26.245Z,44.83
2019-03-21T12:41:02.619Z,41.02
2019-03-21T12:43:33.976Z,42.73
2019-03-21T12:46:06.303Z,46.85
2019-03-21T12:48:38.649Z,47.85
2019-03-21T12:51:17.372Z,50.92
2019-03-21T12:53:49.432Z,52.50
2019-03-21T12:56:21.593Z,48.20
2019-03-21T12:58:54.326Z,50.05
2019-03-21T13:01:26.593Z,53.63
2019-03-21T13:03:59.029Z,48.05
2019-03-21T13:06:31.322Z,51.35
2019-03-21T13:09:05.965Z,53.65
2019-03-21T13:11:38.429Z,49.53
2019-03-21T13:14:10.737Z,49.40
2019-03-21T13:16:43.020Z,53.85
2019-03-21T13:19:15.172Z,48.97
2019-03-21T13:21:47.500Z,54.00
2019-03-21T13:24:19.815Z,56.42
2019-03-21T13:26:52.145Z,65.67
2019-03-21T13:29:25.238Z,61.23
2019-03-21T13:31:57.599Z,58.92
2019-03-21T13:34:29.879Z,60.70
2019-03-21T13:37:02.325Z,53.30
2019-03-21T13:39:34.477Z,55.35
2019-03-21T13:42:07.031Z,46.77
2019-03-21T13:44:39.240Z,50.53
2019-03-21T13:47:12.560Z,50.35
2019-03-21T13:49:44.845Z,47.40
2019-03-21T13:52:18.247Z,57.13
2019-03-21T13:54:50.589Z,49.13
2019-03-21T13:57:22.964Z,50.33
2019-03-21T13:59:55.570Z,49.53
2019-03-21T14:02:27.793Z,47.13
2019-03-21T14:04:59.946Z,48.25
2019-03-21T14:07:32.289Z,44.98
2019-03-21T14:10:06.779Z,49.00
2019-03-21T14:12:40.366Z,51.83
2019-03-21T14:15:15.409Z,48.33
2019-03-21T14:17:47.761Z,58.33
2019-03-21T14:20:20.247Z,48.75
2019-03-21T14:22:52.582Z,48.73
2019-03-21T14:25:24.677Z,55.63
2019-03-21T14:27:57.029Z,62.38
2019-03-21T14:30:29.433Z,60.12
2019-03-21T14:33:01.881Z,55.28
2019-03-21T14:35:34.278Z,72.47
2019-03-21T14:38:07.524Z,68.90
2019-03-21T14:40:39.701Z,59.40
2019-03-21T14:43:11.913Z,52.15
2019-03-21T14:45:44.155Z,64.62
2019-03-21T14:48:16.376Z,49.38
2019-03-21T14:50:48.573Z,52.75
2019-03-21T14:53:28.668Z,70.95
2019-03-21T14:55:54.577Z,62.90
2019-03-21T14:58:28.286Z,50.78
2019-03-21T15:01:01.033Z,62.60
2019-03-21T15:03:33.377Z,56.40
2019-03-21T15:06:05.787Z,55.35
2019-03-21T15:08:38.171Z,50.17
2019-03-21T15:11:16.884Z,56.05
2019-03-21T15:13:45.486Z,64.55
2019-03-21T15:16:17.743Z,58.40
2019-03-21T15:18:50.025Z,86.55
2019-03-21T15:21:22.453Z,71.30
2019-03-21T15:23:59.419Z,52.62
2019-03-21T15:26:28.298Z,60.55
2019-03-21T15:29:00.450Z,56.63
2019-03-21T15:31:32.917Z,50.60
2019-03-21T15:34:05.131Z,51.70
2019-03-21T15:36:37.320Z,66.70
2019-03-21T15:39:10.307Z,70.95
2019-03-21T15:41:42.684Z,72.20
2019-03-21T15:44:15.285Z,59.97
2019-03-21T15:46:47.664Z,58.77
2019-03-21T15:49:20.105Z,59.77
2019-03-21T15:51:52.292Z,56.08
2019-03-21T15:54:24.522Z,60.92
2019-03-21T15:56:56.747Z,73.03
2019-03-21T15:59:28.882Z,75.92
2019-03-21T16:02:01.471Z,74.45
2019-03-21T16:04:33.740Z,58.95
2019-03-21T16:07:06.109Z,82.53
2019-03-21T16:09:38.381Z,61.58
2019-03-21T16:12:11.169Z,56.30
2019-03-21T16:14:43.326Z,60.48
2019-03-21T16:17:15.523Z,72.70
2019-03-21T16:19:47.614Z,61.33
2019-03-21T16:22:19.719Z,63.98
2019-03-21T16:24:52.161Z,63.68
2019-03-21T16:27:24.509Z,60.08
2019-03-21T16:29:56.786Z,63.33
2019-03-21T16:32:29.142Z,54.77
2019-03-21T16:35:01.437Z,52.08
2019-03-21T16:37:33.798Z,56.18
2019-03-21T16:40:07.914Z,60.17
2019-03-21T16:42:40.102Z,59.30
2019-03-21T16:45:13.725Z,58.07
2019-03-21T16:47:46.068Z,59.00
2019-03-21T16:50:18.316Z,53.58
2019-03-21T16:52:50.597Z,50.08
2019-03-21T16:55:22.859Z,53.30
2019-03-21T16:57:55.139Z,54.93
2019-03-21T17:00:27.486Z,58.98
2019-03-21T17:03:00.054Z,53.78
2019-03-21T17:05:32.304Z,52.35
2019-03-21T17:08:11.030Z,71.22
2019-03-21T17:10:38.373Z,58.55
2019-03-21T17:13:11.064Z,95.05
2019-03-21T17:15:43.270Z,56.35
2019-03-21T17:18:15.610Z,55.25
2019-03-21T17:20:47.937Z,51.00
2019-03-21T17:23:21.221Z,58.42
2019-03-21T17:25:53.295Z,57.38
2019-03-21T17:28:25.752Z,55.50
2019-03-21T17:30:57.917Z,56.05
2019-03-21T17:33:30.406Z,67.85
2019-03-21T17:36:02.637Z,72.05
2019-03-21T17:38:35.036Z,64.15
2019-03-21T17:41:07.188Z,116.45
2019-03-21T17:43:39.414Z,77.22
2019-03-21T17:46:11.733Z,72.87
2019-03-21T17:48:43.930Z,68.33
2019-03-21T17:51:16.120Z,63.92
2019-03-21T17:53:48.384Z,58.25
2019-03-21T17:56:20.720Z,55.85
2019-03-21T17:58:53.159Z,54.23
2019-03-21T18:01:25.510Z,77.00
2019-03-21T18:03:58.128Z,57.27
2019-03-21T18:06:30.270Z,94.22
2019-03-21T18:09:02.525Z,57.05
2019-03-21T18:11:34.945Z,56.83
2019-03-21T18:14:07.980Z,49.98
2019-03-21T18:16:40.530Z,55.78
2019-03-21T18:19:13.869Z,60.45
2019-03-21T18:21:46.243Z,52.55
2019-03-21T18:24:18.594Z,54.70
2019-03-21T18:26:51.030Z,76.45
2019-03-21T18:29:23.112Z,52.27
2019-03-21T18:31:55.602Z,61.73
2019-03-21T18:34:28.142Z,55.20
2019-03-21T18:37:00.595Z,55.80
2019-03-21T18:39:32.967Z,52.70
2019-03-21T18:42:05.298Z,56.58
2019-03-21T18:44:37.651Z,56.48
2019-03-21T18:47:09.768Z,61.60
2019-03-21T18:49:41.964Z,64.25
2019-03-21T18:52:14.249Z,62.73
2019-03-21T18:54:46.550Z,66.80
2019-03-21T18:57:18.872Z,56.25
2019-03-21T18:59:51.233Z,52.85
2019-03-21T19:02:23.575Z,57.95
2019-03-21T19:04:56.194Z,57.05
2019-03-21T19:07:28.383Z,59.58
2019-03-21T19:10:00.756Z,56.58
2019-03-21T19:12:33.022Z,63.05
2019-03-21T19:15:07.166Z,64.10
2019-03-21T19:17:39.358Z,57.20
2019-03-21T19:20:13.997Z,63.35
2019-03-21T19:22:46.337Z,55.95
2019-03-21T19:25:19.959Z,68.10
2019-03-21T19:27:52.292Z,60.05
2019-03-21T19:30:24.647Z,59.77
2019-03-21T19:32:56.807Z,78.13
2019-03-21T19:35:29.411Z,63.23
2019-03-21T19:38:01.748Z,63.13
2019-03-21T19:40:33.902Z,63.65
2019-03-21T19:43:06.308Z,62.55
2019-03-21T19:45:38.660Z,67.40
2019-03-21T19:48:10.777Z,66.75
2019-03-21T19:50:43.091Z,64.75
2019-03-21T19:53:15.200Z,67.70
2019-03-21T19:55:47.434Z,74.30
2019-03-21T19:58:19.583Z,73.93
2019-03-21T20:00:51.655Z,79.20
2019-03-21T20:03:23.937Z,79.00
2019-03-21T20:06:00.534Z,74.25
2019-03-21T20:08:29.675Z,81.10
2019-03-21T20:11:01.774Z,73.30
2019-03-21T20:13:34.218Z,71.53
2019-03-21T20:16:06.837Z,79.95
2019-03-21T20:18:39.045Z,73.50
2019-03-21T20:21:11.192Z,77.25
2019-03-21T20:23:43.786Z,76.40
2019-03-21T20:26:16.073Z,83.75
2019-03-21T20:28:48.339Z,85.37
2019-03-21T20:31:20.626Z,95.57
2019-03-21T20:33:52.810Z,84.25
2019-03-21T20:36:25.415Z,89.22
2019-03-21T20:38:57.725Z,94.00
2019-03-21T20:41:29.973Z,87.12
2019-03-21T20:44:14.211Z,86.17
2019-03-21T20:46:35.506Z,88.37
2019-03-21T20:49:07.842Z,94.50
2019-03-21T20:51:40.088Z,91.32
2019-03-21T20:54:12.163Z,80.57
2019-03-21T20:56:44.275Z,86.85
2019-03-21T20:59:16.850Z,94.70
2019-03-21T21:01:49.365Z,81.80
2019-03-21T21:04:21.514Z,84.92
2019-03-21T21:06:54.047Z,85.75
2019-03-21T21:09:26.269Z,88.27
2019-03-21T21:11:58.653Z,81.97
2019-03-21T21:14:30.874Z,87.80
2019-03-21T21:17:03.438Z,87.95
2019-03-21T21:19:35.566Z,86.50
2019-03-21T21:22:07.659Z,82.78
2019-03-21T21:24:39.778Z,87.02
2019-03-21T21:27:11.936Z,85.40
2019-03-21T21:29:44.085Z,91.90
2019-03-21T21:32:17.322Z,86.00
2019-03-21T21:34:49.673Z,89.80
2019-03-21T21:37:23.038Z,87.37
2019-03-21T21:39:55.403Z,96.75
2019-03-21T21:42:27.753Z,89.75
2019-03-21T21:44:59.918Z,88.40
2019-03-21T21:47:32.058Z,85.57
2019-03-21T21:50:04.427Z,86.10
2019-03-21T21:52:41.856Z,90.20
2019-03-21T21:55:10.690Z,88.75
2019-03-21T21:57:43.093Z,93.23
2019-03-21T22:00:18.171Z,92.78
2019-03-21T22:02:50.479Z,94.05
2019-03-21T22:05:22.861Z,92.53
2019-03-21T22:07:55.250Z,93.20
2019-03-21T22:10:29.428Z,91.25
2019-03-21T22:13:00.842Z,88.42
2019-03-21T22:15:33.179Z,100.82
2019-03-21T22:18:06.783Z,88.72
2019-03-21T22:20:38.919Z,92.35
2019-03-21T22:23:11.208Z,92.15
2019-03-21T22:25:43.362Z,99.03
2019-03-21T22:28:15.594Z,92.77
2019-03-21T22:30:47.926Z,93.63
2019-03-21T22:33:20.162Z,97.45
2019-03-21T22:35:52.292Z,90.85
2019-03-21T22:38:24.754Z,93.52
2019-03-21T22:40:56.933Z,96.35
2019-03-21T22:43:30.031Z,91.42
2019-03-21T22:46:02.219Z,98.42
2019-03-21T22:48:34.316Z,100.02
2019-03-21T22:51:06.423Z,95.90
2019-03-21T22:53:38.660Z,93.27
2019-03-21T22:56:11.047Z,97.40
2019-03-21T22:58:43.343Z,86.15
2019-03-21T23:01:15.766Z,89.60
2019-03-21T23:03:48.121Z,88.37
2019-03-21T23:06:20.369Z,96.83
2019-03-21T23:08:52.838Z,91.63
2019-03-21T23:11:25.250Z,91.93
2019-03-21T23:13:57.604Z,86.72
2019-03-21T23:16:29.736Z,87.92
2019-03-21T23:19:03.539Z,96.85
2019-03-21T23:21:36.058Z,91.00
2019-03-21T23:24:08.321Z,90.00
2019-03-21T23:26:40.359Z,106.52
2019-03-21T23:29:12.791Z,100.75
2019-03-21T23:31:44.947Z,101.45
2019-03-21T23:34:17.399Z,99.87
2019-03-21T23:36:49.783Z,104.43
2019-03-21T23:39:22.070Z,104.67
2019-03-21T23:41:54.289Z,97.10
2019-03-21T23:44:26.636Z,114.80
2019-03-21T23:46:58.872Z,100.10
2019-03-21T23:49:31.029Z,106.65
2019-03-21T23:52:03.156Z,90.72
2019-03-21T23:54:35.452Z,98.33
2019-03-21T23:57:07.948Z,100.55
2019-03-21T23:59:40.205Z,98.62
